Time;durP1;ratioP1;P1;durP2;ratioP2;P2;SDS_P1;SDS_P2;PMS_P1;PMS_P2;Temp;Humidity;BMP_temperature;BMP_pressure;BME280_temperature;BME280_humidity;BME280_pressure;Samples;Min_cycle;Max_cycle;Signal;HPM_P1;HPM_P2
2021/04/11 00:00:42;;;;;;;9.57;7.53;;;8.90;99.90;;;;;;5022866;28;20953;-62
2021/04/11 00:03:15;;;;;;;8.60;7.80;;;8.90;99.90;;;;;;5003884;28;20912;-62
2021/04/11 00:05:42;;;;;;;9.10;7.40;;;8.90;99.90;;;;;;5013866;28;20557;-62
2021/04/11 00:08:12;;;;;;;8.50;7.10;;;8.90;99.90;;;;;;5015552;28;20460;-63
2021/04/11 00:10:42;;;;;;;7.63;6.93;;;8.90;99.90;;;;;;4997421;28;20469;-62
2021/04/11 00:13:16;;;;;;;8.70;7.47;;;8.90;99.90;;;;;;5004275;28;20478;-62
2021/04/11 00:15:53;;;;;;;8.30;7.40;;;8.90;99.90;;;;;;5019998;28;20797;-62
2021/04/11 00:18:21;;;;;;;7.27;6.57;;;9.00;99.90;;;;;;5006655;28;20808;-62
2021/04/11 00:20:54;;;;;;;8.57;7.13;;;9.00;99.90;;;;;;5015462;28;20464;-62
2021/04/11 00:23:23;;;;;;;8.50;6.63;;;9.00;99.90;;;;;;5010469;28;20778;-62
2021/04/11 00:25:50;;;;;;;7.70;6.90;;;9.00;99.90;;;;;;5017296;28;20561;-62
2021/04/11 00:28:17;;;;;;;7.63;6.93;;;9.00;99.90;;;;;;5016852;28;20467;-63
2021/04/11 00:30:44;;;;;;;8.30;7.50;;;9.00;99.90;;;;;;4997771;28;20523;-63
2021/04/11 00:33:23;;;;;;;9.10;7.60;;;9.00;99.90;;;;;;5015260;28;20501;-62
2021/04/11 00:35:53;;;;;;;9.53;8.53;;;9.00;99.90;;;;;;5012365;28;20467;-62
2021/04/11 00:38:20;;;;;;;9.00;8.20;;;9.00;99.90;;;;;;5016994;28;20487;-62
2021/04/11 00:40:46;;;;;;;8.60;7.83;;;9.00;99.90;;;;;;5014108;28;20468;-62
2021/04/11 00:43:18;;;;;;;8.80;7.53;;;9.00;99.90;;;;;;5007168;28;20464;-62
2021/04/11 00:46:04;;;;;;;9.90;6.97;;;9.00;99.90;;;;;;5006579;28;20499;-62
2021/04/11 00:48:32;;;;;;;11.50;7.10;;;9.00;99.90;;;;;;5016400;28;20884;-62
2021/04/11 00:51:02;;;;;;;11.30;7.30;;;9.00;99.90;;;;;;5014432;28;20464;-63
2021/04/11 00:53:29;;;;;;;8.07;7.27;;;9.00;99.90;;;;;;5013780;28;20538;-62
2021/04/11 00:56:02;;;;;;;7.90;7.20;;;9.00;99.90;;;;;;5037929;28;20459;-62
2021/04/11 00:58:31;;;;;;;10.70;8.47;;;9.00;99.90;;;;;;5020878;28;20525;-62
2021/04/11 01:00:59;;;;;;;11.40;9.80;;;9.00;99.90;;;;;;5031984;28;20890;-62
2021/04/11 01:03:32;;;;;;;8.70;7.80;;;9.00;99.90;;;;;;5005352;28;20471;-62
2021/04/11 01:05:59;;;;;;;10.50;8.20;;;9.00;99.90;;;;;;5014666;28;20483;-63
2021/04/11 01:08:30;;;;;;;8.37;7.67;;;9.00;99.90;;;;;;5016205;28;20476;-63
2021/04/11 01:11:01;;;;;;;8.63;7.73;;;9.00;99.90;;;;;;5001717;28;20469;-63
2021/04/11 01:13:28;;;;;;;8.60;7.10;;;9.00;99.90;;;;;;5017754;28;20472;-63
2021/04/11 01:15:56;;;;;;;8.87;7.90;;;9.00;99.90;;;;;;5015027;28;20460;-62
2021/04/11 01:18:23;;;;;;;12.03;8.53;;;9.00;99.90;;;;;;5003680;28;20472;-63
2021/04/11 01:20:49;;;;;;;8.37;7.53;;;9.00;99.90;;;;;;4999882;28;20465;-62
2021/04/11 01:23:29;;;;;;;9.87;7.57;;;8.90;99.90;;;;;;5000486;28;20499;-62
2021/04/11 01:26:01;;;;;;;9.47;8.40;;;9.00;99.90;;;;;;5012941;28;20506;-63
2021/04/11 01:28:32;;;;;;;9.10;8.30;;;9.00;99.90;;;;;;4999640;28;20896;-62
2021/04/11 01:31:05;;;;;;;9.20;8.30;;;8.90;99.90;;;;;;5006437;28;20468;-62
2021/04/11 01:33:35;;;;;;;9.13;7.90;;;8.90;99.90;;;;;;5010266;28;20495;-62
2021/04/11 01:36:04;;;;;;;9.00;8.10;;;9.00;99.90;;;;;;5000807;28;20465;-61
2021/04/11 01:38:31;;;;;;;9.07;8.17;;;8.90;99.90;;;;;;4999303;28;20484;-61
2021/04/11 01:41:04;;;;;;;8.43;7.40;;;9.00;99.90;;;;;;5013883;28;20479;-61
2021/04/11 01:43:34;;;;;;;8.97;8.17;;;9.00;99.90;;;;;;5004173;28;20476;-61
2021/04/11 01:46:01;;;;;;;13.10;9.30;;;9.00;99.90;;;;;;5003161;28;20503;-61
2021/04/11 01:48:28;;;;;;;8.70;7.90;;;9.00;99.90;;;;;;5000665;28;20469;-61
2021/04/11 01:50:56;;;;;;;12.50;8.90;;;9.00;99.90;;;;;;5019213;28;20479;-61
2021/04/11 01:53:24;;;;;;;9.50;8.60;;;9.10;99.90;;;;;;5018010;28;20472;-61
2021/04/11 01:55:52;;;;;;;11.53;8.67;;;9.00;99.90;;;;;;4999246;28;20468;-61
2021/04/11 01:58:20;;;;;;;9.00;8.13;;;9.00;99.90;;;;;;5006259;28;20468;-61
2021/04/11 02:00:49;;;;;;;10.50;8.37;;;9.00;99.90;;;;;;5017673;28;20490;-61
2021/04/11 02:03:19;;;;;;;10.13;8.83;;;9.10;99.90;;;;;;5013519;28;20475;-61
2021/04/11 02:05:49;;;;;;;9.30;8.40;;;9.10;99.90;;;;;;5014263;28;21156;-61
2021/04/11 02:08:20;;;;;;;8.83;7.67;;;9.10;99.90;;;;;;5017790;28;20891;-61
2021/04/11 02:10:49;;;;;;;10.53;9.40;;;9.10;99.90;;;;;;5019587;28;20506;-61
2021/04/11 02:13:21;;;;;;;8.87;7.97;;;9.10;99.90;;;;;;5029573;28;20460;-61
2021/04/11 02:15:51;;;;;;;8.93;8.03;;;9.10;99.90;;;;;;5018659;28;20456;-61
2021/04/11 02:18:21;;;;;;;10.53;8.37;;;9.10;99.90;;;;;;5019005;28;20446;-61
2021/04/11 02:20:50;;;;;;;9.27;8.37;;;9.10;99.90;;;;;;5022802;28;20887;-61
2021/04/11 02:23:26;;;;;;;8.37;7.57;;;9.10;99.90;;;;;;5020334;28;20808;-60
2021/04/11 02:25:55;;;;;;;8.80;7.80;;;9.10;99.90;;;;;;5018297;28;20546;-61
2021/04/11 02:28:26;;;;;;;9.40;7.97;;;9.10;99.90;;;;;;5019086;28;20784;-60
2021/04/11 02:30:56;;;;;;;8.97;8.17;;;9.10;99.90;;;;;;5019032;28;20518;-60
2021/04/11 02:33:27;;;;;;;8.30;7.50;;;9.20;99.90;;;;;;5019187;28;20499;-60
2021/04/11 02:35:56;;;;;;;9.57;7.80;;;9.20;99.90;;;;;;5019277;28;20468;-60
2021/04/11 02:38:24;;;;;;;8.80;8.00;;;9.10;99.90;;;;;;5018816;28;20475;-60
2021/04/11 02:40:52;;;;;;;11.57;8.27;;;9.20;99.90;;;;;;5019162;28;20487;-60
2021/04/11 02:43:20;;;;;;;9.70;8.80;;;9.20;99.90;;;;;;5018674;28;20459;-61
2021/04/11 02:45:48;;;;;;;8.40;7.70;;;9.20;99.90;;;;;;5019455;28;20546;-61
2021/04/11 02:48:16;;;;;;;8.50;7.70;;;9.20;99.90;;;;;;5019276;28;20471;-61
2021/04/11 02:50:45;;;;;;;8.30;7.50;;;9.20;99.90;;;;;;5019013;28;20890;-62
2021/04/11 02:53:15;;;;;;;7.90;7.30;;;9.20;99.90;;;;;;5017838;28;20475;-61
2021/04/11 02:55:44;;;;;;;8.17;7.37;;;9.20;99.90;;;;;;5018814;28;20469;-61
2021/04/11 02:58:15;;;;;;;9.37;7.97;;;9.20;99.90;;;;;;5030334;28;20463;-60
2021/04/11 03:00:47;;;;;;;9.57;8.67;;;9.20;99.90;;;;;;5038527;28;20474;-60
2021/04/11 03:03:14;;;;;;;11.57;8.50;;;9.20;99.90;;;;;;5017016;28;20921;-60
2021/04/11 03:05:41;;;;;;;10.10;8.03;;;9.20;99.90;;;;;;5016924;28;20510;-61
2021/04/11 03:08:11;;;;;;;8.17;7.30;;;9.20;99.90;;;;;;5034815;28;20819;-61
2021/04/11 03:10:45;;;;;;;11.67;9.20;;;9.30;99.90;;;;;;5000459;28;20475;-62
2021/04/11 03:13:12;;;;;;;9.50;8.50;;;9.20;99.90;;;;;;5017771;28;20472;-62
2021/04/11 03:15:40;;;;;;;8.80;8.10;;;9.20;99.90;;;;;;5018176;28;20750;-62
2021/04/11 03:18:10;;;;;;;12.70;7.90;;;9.20;99.90;;;;;;5010844;28;20461;-61
2021/04/11 03:20:40;;;;;;;8.60;7.90;;;9.20;99.90;;;;;;5016660;28;20468;-62
2021/04/11 03:23:08;;;;;;;9.40;7.83;;;9.20;99.90;;;;;;5016805;28;20464;-63
2021/04/11 03:25:38;;;;;;;8.60;7.80;;;9.20;99.90;;;;;;5019108;28;20903;-62
2021/04/11 03:28:08;;;;;;;9.30;8.47;;;9.20;99.90;;;;;;5018834;28;20562;-61
2021/04/11 03:30:39;;;;;;;9.30;8.40;;;9.20;99.90;;;;;;5018840;28;20500;-62
2021/04/11 03:33:11;;;;;;;9.53;8.63;;;9.20;99.90;;;;;;5018475;28;20546;-61
2021/04/11 03:35:41;;;;;;;8.37;7.67;;;9.20;99.90;;;;;;5020242;28;20459;-61
2021/04/11 03:38:10;;;;;;;8.60;7.90;;;9.20;99.90;;;;;;5016989;28;20459;-62
2021/04/11 03:40:39;;;;;;;8.73;7.93;;;9.20;99.90;;;;;;4998840;28;20469;-62
2021/04/11 03:43:13;;;;;;;8.37;7.77;;;9.10;99.90;;;;;;5011674;28;20473;-62
2021/04/11 03:45:40;;;;;;;8.63;7.90;;;9.00;99.90;;;;;;5038310;28;20590;-62
2021/04/11 03:48:19;;;;;;;7.80;7.20;;;9.00;99.90;;;;;;5026260;28;20924;-62
2021/04/11 03:50:56;;;;;;;8.63;7.93;;;9.00;99.90;;;;;;5015450;28;20471;-62
2021/04/11 03:53:30;;;;;;;10.33;9.33;;;8.80;99.90;;;;;;5014983;28;20442;-62
2021/04/11 03:56:01;;;;;;;10.67;9.57;;;8.70;99.90;;;;;;5018804;28;20514;-62
2021/04/11 03:58:31;;;;;;;10.40;9.40;;;8.70;99.90;;;;;;4998732;28;20465;-62
2021/04/11 04:01:02;;;;;;;10.80;9.80;;;8.60;99.90;;;;;;5003238;28;20460;-62
2021/04/11 04:03:33;;;;;;;10.87;9.77;;;8.60;99.90;;;;;;5011421;28;20480;-62
2021/04/11 04:06:06;;;;;;;11.67;10.57;;;8.40;99.90;;;;;;5001513;28;20496;-62
2021/04/11 04:08:32;;;;;;;12.30;11.10;;;8.40;99.90;;;;;;5000984;28;20554;-61
2021/04/11 04:11:12;;;;;;;12.53;11.23;;;8.40;99.90;;;;;;5028446;28;20874;-62
2021/04/11 04:13:50;;;;;;;12.77;11.47;;;8.40;99.90;;;;;;5017456;28;20912;-62
2021/04/11 04:16:21;;;;;;;12.93;11.73;;;8.30;99.90;;;;;;5015797;28;20459;-61
2021/04/11 04:19:01;;;;;;;11.90;10.80;;;8.20;99.90;;;;;;5017659;28;20464;-61
2021/04/11 04:22:07;;;;;;;13.07;11.10;;;8.00;99.90;;;;;;5015216;28;20453;-61
2021/04/11 04:24:48;;;;;;;13.17;11.80;;;7.90;99.90;;;;;;4997930;28;20945;-61
2021/04/11 04:27:39;;;;;;;13.07;11.67;;;7.90;99.90;;;;;;5000874;28;20555;-61
2021/04/11 04:30:17;;;;;;;13.57;12.17;;;7.80;99.90;;;;;;5033243;28;20986;-61
2021/04/11 04:33:31;;;;;;;14.60;13.00;;;7.80;99.90;;;;;;5021293;28;20851;-61
2021/04/11 04:36:10;;;;;;;17.10;13.60;;;7.80;99.90;;;;;;4975444;28;20468;-61
2021/04/11 04:38:49;;;;;;;14.77;13.20;;;7.60;99.90;;;;;;5017085;28;20770;-61
2021/04/11 04:41:21;;;;;;;13.53;12.10;;;7.70;99.90;;;;;;5001849;28;20460;-62
2021/04/11 04:43:59;;;;;;;10.70;9.70;;;7.70;99.90;;;;;;5039513;28;20470;-61
2021/04/11 04:46:36;;;;;;;12.23;10.80;;;7.60;99.90;;;;;;5038470;28;20488;-62
2021/04/11 04:49:11;;;;;;;11.17;10.07;;;7.60;99.90;;;;;;5021085;28;20813;-62
2021/04/11 04:51:43;;;;;;;10.43;9.07;;;7.50;99.90;;;;;;5021773;28;20565;-61
2021/04/11 04:54:20;;;;;;;9.50;8.60;;;7.50;99.90;;;;;;5021686;28;20946;-61
2021/04/11 04:56:53;;;;;;;10.07;9.17;;;7.50;99.90;;;;;;5034179;28;20501;-62
2021/04/11 04:59:24;;;;;;;9.33;8.40;;;7.50;99.90;;;;;;5040359;28;20496;-62
2021/04/11 05:01:59;;;;;;;9.27;8.37;;;7.50;99.90;;;;;;5023958;28;20468;-62
2021/04/11 05:04:28;;;;;;;8.67;7.87;;;7.50;99.90;;;;;;5013080;28;20472;-62
2021/04/11 05:07:01;;;;;;;9.00;8.20;;;7.40;99.90;;;;;;5016380;28;20460;-62
2021/04/11 05:09:38;;;;;;;8.63;7.83;;;7.40;99.90;;;;;;5020645;28;20764;-62
2021/04/11 05:12:11;;;;;;;9.37;8.57;;;7.40;99.90;;;;;;5021536;28;20562;-62
2021/04/11 05:14:42;;;;;;;8.97;8.07;;;7.40;99.90;;;;;;5020615;28;20897;-62
2021/04/11 05:17:15;;;;;;;8.27;7.53;;;7.40;99.90;;;;;;5020943;28;20467;-62
2021/04/11 05:19:45;;;;;;;8.07;7.37;;;7.40;99.90;;;;;;5004960;28;20472;-62
2021/04/11 05:22:19;;;;;;;9.30;8.50;;;7.40;99.90;;;;;;5011803;28;20514;-61
2021/04/11 05:24:48;;;;;;;9.23;8.33;;;7.40;99.90;;;;;;5000964;28;20496;-61
2021/04/11 05:27:21;;;;;;;8.70;7.80;;;7.40;99.90;;;;;;5006516;28;20443;-60
2021/04/11 05:29:55;;;;;;;9.53;8.63;;;7.20;99.90;;;;;;5022140;28;20928;-61
2021/04/11 05:32:22;;;;;;;9.60;8.60;;;7.10;99.90;;;;;;5030252;28;20553;-61
2021/04/11 05:34:50;;;;;;;9.97;8.97;;;7.10;99.90;;;;;;5041027;28;20467;-63
2021/04/11 05:37:30;;;;;;;12.50;11.23;;;7.00;99.90;;;;;;5016738;28;20465;-61
2021/04/11 05:40:07;;;;;;;12.87;11.43;;;6.80;99.90;;;;;;5002008;28;20442;-60
2021/04/11 05:42:41;;;;;;;13.33;11.93;;;6.80;99.90;;;;;;5038083;28;20884;-61
2021/04/11 05:45:14;;;;;;;13.27;11.43;;;6.70;99.90;;;;;;5037353;28;20586;-61
2021/04/11 05:47:51;;;;;;;16.30;13.93;;;6.60;99.90;;;;;;5020978;28;20463;-61
2021/04/11 05:50:21;;;;;;;16.13;13.53;;;6.50;99.90;;;;;;5020729;28;20471;-61
2021/04/11 05:52:55;;;;;;;16.43;13.83;;;6.40;99.90;;;;;;5020331;28;20529;-61
2021/04/11 05:55:25;;;;;;;18.63;14.10;;;6.20;99.90;;;;;;5021037;28;20471;-60
2021/04/11 05:57:55;;;;;;;21.60;16.53;;;6.20;99.90;;;;;;5021737;28;20467;-59
2021/04/11 06:00:25;;;;;;;29.10;17.13;;;6.10;99.90;;;;;;5038051;28;20463;-60
2021/04/11 06:02:57;;;;;;;22.83;18.20;;;6.10;99.90;;;;;;5033867;28;20464;-60
2021/04/11 06:05:29;;;;;;;32.70;18.70;;;6.10;99.90;;;;;;5012437;28;20543;-60
2021/04/11 06:08:03;;;;;;;27.10;21.70;;;6.00;99.90;;;;;;5013700;28;20847;-60
2021/04/11 06:10:35;;;;;;;28.87;19.60;;;6.00;99.90;;;;;;5002041;28;20530;-60
2021/04/11 06:13:05;;;;;;;34.90;21.00;;;6.00;99.90;;;;;;5010034;28;20475;-58
2021/04/11 06:15:36;;;;;;;83.13;22.93;;;5.90;99.90;;;;;;5020618;28;20491;-59
2021/04/11 06:18:06;;;;;;;63.13;23.50;;;5.80;99.90;;;;;;5021944;28;20460;-60
2021/04/11 06:20:34;;;;;;;56.47;23.33;;;5.70;99.90;;;;;;5012918;28;20464;-59
2021/04/11 06:23:11;;;;;;;59.10;20.87;;;5.70;99.90;;;;;;5006114;28;20500;-60
2021/04/11 06:25:44;;;;;;;35.07;21.43;;;5.60;99.90;;;;;;5002686;28;20493;-60
2021/04/11 06:28:15;;;;;;;56.10;20.37;;;5.50;99.90;;;;;;5020459;28;20467;-60
2021/04/11 06:30:50;;;;;;;65.53;22.20;;;5.50;99.90;;;;;;5020376;28;20523;-60
2021/04/11 06:33:22;;;;;;;55.53;18.70;;;5.40;99.90;;;;;;5020217;28;20971;-60
2021/04/11 06:35:54;;;;;;;46.50;19.20;;;5.20;99.90;;;;;;5016626;28;20459;-60
2021/04/11 06:38:26;;;;;;;32.77;19.77;;;5.30;99.90;;;;;;5019400;28;20464;-60
2021/04/11 06:41:14;;;;;;;36.00;23.67;;;5.20;99.90;;;;;;5019769;28;20471;-58
2021/04/11 06:44:10;;;;;;;41.00;22.93;;;5.10;99.90;;;;;;5020273;28;20761;-60
2021/04/11 06:46:49;;;;;;;44.03;22.10;;;5.10;99.90;;;;;;5020061;28;20496;-60
2021/04/11 06:49:36;;;;;;;41.10;25.90;;;5.20;99.90;;;;;;5011192;28;20457;-60
2021/04/11 06:52:24;;;;;;;44.87;25.57;;;5.20;99.90;;;;;;5007477;28;20494;-60
2021/04/11 06:55:10;;;;;;;48.70;27.10;;;5.00;99.90;;;;;;5038469;28;20467;-59
2021/04/11 06:57:46;;;;;;;42.10;23.87;;;5.00;99.90;;;;;;5035885;28;20794;-58
2021/04/11 07:00:42;;;;;;;54.40;25.17;;;4.90;99.90;;;;;;5020564;28;20470;-60
2021/04/11 07:03:45;;;;;;;39.77;25.40;;;4.80;99.90;;;;;;5021579;28;20805;-60
2021/04/11 07:06:38;;;;;;;47.50;27.10;;;4.90;99.90;;;;;;5012228;28;20498;-64
2021/04/11 07:09:36;;;;;;;64.70;29.87;;;4.90;99.90;;;;;;4999668;28;20538;-60
2021/04/11 07:12:35;;;;;;;40.80;24.93;;;4.90;99.90;;;;;;5031522;28;20470;-59
2021/04/11 07:15:34;;;;;;;60.90;24.40;;;4.90;99.90;;;;;;5000264;28;20736;-60
2021/04/11 07:18:57;;;;;;;35.47;23.00;;;4.80;99.90;;;;;;4998158;28;20468;-60
2021/04/11 07:22:03;;;;;;;64.57;25.83;;;4.70;99.90;;;;;;4901293;29;20472;-60
2021/04/11 07:24:49;;;;;;;36.53;23.17;;;4.80;99.90;;;;;;4920017;29;20463;-61
2021/04/11 07:27:37;;;;;;;39.47;24.30;;;4.70;99.90;;;;;;5019633;28;20464;-58
2021/04/11 07:30:26;;;;;;;38.33;23.60;;;4.70;99.90;;;;;;5030074;28;20486;-59
2021/04/11 07:33:32;;;;;;;43.47;25.50;;;4.70;99.90;;;;;;5038629;28;20486;-60
2021/04/11 07:36:30;;;;;;;39.13;25.43;;;4.70;99.90;;;;;;4999538;28;20460;-60
2021/04/11 07:39:17;;;;;;;30.87;21.87;;;4.70;99.90;;;;;;4999735;28;20785;-60
2021/04/11 07:41:56;;;;;;;37.83;23.47;;;4.50;99.90;;;;;;4999206;28;21222;-60
2021/04/11 07:44:42;;;;;;;38.47;23.60;;;4.50;99.90;;;;;;5000157;28;20527;-60
2021/04/11 07:47:22;;;;;;;31.87;24.37;;;4.40;99.90;;;;;;4999841;28;20707;-59
2021/04/11 07:50:08;;;;;;;34.47;24.13;;;4.40;99.90;;;;;;4999434;28;20456;-58
2021/04/11 07:52:53;;;;;;;33.97;23.47;;;4.40;99.90;;;;;;4999663;28;20472;-60
2021/04/11 07:55:33;;;;;;;33.80;23.10;;;4.50;99.90;;;;;;4998776;28;20965;-60
2021/04/11 07:58:19;;;;;;;29.83;21.97;;;4.50;99.90;;;;;;4999418;28;20731;-59
2021/04/11 08:01:10;;;;;;;33.33;22.67;;;4.20;99.90;;;;;;4998829;28;20480;-58
2021/04/11 08:04:00;;;;;;;33.20;22.40;;;4.40;99.90;;;;;;5004068;28;20486;-59
2021/04/11 08:07:01;;;;;;;37.33;23.47;;;4.40;99.90;;;;;;5007710;28;20492;-60
2021/04/11 08:09:46;;;;;;;45.50;28.20;;;4.50;99.90;;;;;;5013014;28;20868;-60
2021/04/11 08:12:58;;;;;;;43.57;27.20;;;4.30;99.90;;;;;;5009898;28;20467;-58
2021/04/11 08:15:32;;;;;;;43.03;27.40;;;4.50;99.90;;;;;;5018426;28;20455;-61
2021/04/11 08:18:36;;;;;;;41.33;26.70;;;4.60;99.90;;;;;;5017794;28;20463;-61
2021/04/11 08:21:22;;;;;;;36.20;22.77;;;4.60;99.90;;;;;;5008471;28;20965;-61
2021/04/11 08:24:14;;;;;;;32.60;23.20;;;4.40;99.90;;;;;;5014550;28;20573;-61
2021/04/11 08:27:26;;;;;;;38.63;25.23;;;4.40;99.90;;;;;;5010654;28;20514;-61
2021/04/11 08:30:23;;;;;;;40.30;23.63;;;4.30;99.90;;;;;;5008182;28;20463;-61
2021/04/11 08:33:28;;;;;;;37.07;25.00;;;4.40;99.90;;;;;;4965969;28;20563;-61
2021/04/11 08:36:34;;;;;;;39.03;25.37;;;4.50;99.90;;;;;;5010744;28;20529;-61
2021/04/11 08:39:42;;;;;;;38.77;26.00;;;4.50;99.90;;;;;;5010720;28;20555;-61
2021/04/11 08:42:22;;;;;;;40.90;25.83;;;4.60;99.90;;;;;;4986863;28;20465;-61
2021/04/11 08:45:08;;;;;;;32.80;23.83;;;4.50;99.90;;;;;;5015618;28;20483;-61
2021/04/11 08:47:45;;;;;;;39.23;24.20;;;4.50;99.90;;;;;;5011020;28;20459;-61
2021/04/11 08:50:19;;;;;;;33.17;23.23;;;4.60;99.90;;;;;;5008684;28;20460;-61
2021/04/11 08:52:56;;;;;;;34.73;22.80;;;4.50;99.90;;;;;;5015355;28;20519;-61
2021/04/11 08:55:35;;;;;;;35.73;23.73;;;4.40;99.90;;;;;;5004737;28;20479;-62
2021/04/11 08:58:30;;;;;;;31.27;20.70;;;4.50;99.90;;;;;;5012261;28;20467;-62
2021/04/11 09:01:21;;;;;;;33.43;22.53;;;4.60;99.90;;;;;;5001483;28;20465;-61
2021/04/11 09:04:04;;;;;;;29.33;20.43;;;4.50;99.90;;;;;;5013016;28;20460;-61
2021/04/11 09:06:47;;;;;;;21.93;16.57;;;4.60;99.90;;;;;;5015360;28;20492;-61
2021/04/11 09:12:45;;;;;;;18.20;13.57;;;4.60;99.90;;;;;;5005204;28;20471;-62
2021/04/11 09:15:24;;;;;;;19.70;14.30;;;4.70;99.90;;;;;;5015901;28;20499;-63
2021/04/11 09:18:02;;;;;;;17.00;11.80;;;4.80;99.90;;;;;;5014772;28;20474;-62
2021/04/11 09:20:39;;;;;;;16.70;12.90;;;4.80;99.90;;;;;;5014071;28;20468;-62
2021/04/11 09:23:26;;;;;;;19.30;12.43;;;4.60;99.90;;;;;;5012028;28;20461;-62
2021/04/11 09:26:03;;;;;;;15.40;11.57;;;4.60;99.90;;;;;;5013937;28;20484;-62
2021/04/11 09:29:00;;;;;;;13.80;11.60;;;4.60;99.90;;;;;;5017550;28;20794;-62
2021/04/11 09:31:38;;;;;;;10.23;8.40;;;4.50;99.90;;;;;;4966810;28;20551;-62
2021/04/11 09:34:49;;;;;;;8.87;7.97;;;4.60;99.90;;;;;;5013356;28;20484;-63
2021/04/11 09:37:38;;;;;;;8.03;6.97;;;4.70;99.90;;;;;;5015935;28;20460;-63
2021/04/11 09:40:20;;;;;;;6.90;5.83;;;4.70;99.90;;;;;;5014071;28;20523;-62
2021/04/11 09:42:57;;;;;;;5.87;5.27;;;4.70;99.90;;;;;;5013910;28;20908;-63
2021/04/11 09:45:47;;;;;;;6.57;5.90;;;4.60;99.90;;;;;;5014541;28;20487;-62
2021/04/11 09:48:32;;;;;;;6.10;5.50;;;4.50;99.90;;;;;;5005091;28;20461;-63
2021/04/11 09:51:14;;;;;;;4.53;4.13;;;4.40;99.90;;;;;;5012430;28;20490;-63
2021/04/11 09:53:56;;;;;;;4.40;4.00;;;4.50;99.90;;;;;;5011868;28;20472;-63
2021/04/11 09:56:44;;;;;;;3.70;3.40;;;4.40;99.90;;;;;;5010117;28;20769;-62
2021/04/11 09:59:30;;;;;;;3.90;3.60;;;4.40;99.90;;;;;;5007622;28;20781;-62
2021/04/11 10:02:05;;;;;;;3.33;3.03;;;4.40;99.90;;;;;;5007894;28;20470;-63
2021/04/11 10:05:02;;;;;;;3.30;3.07;;;4.50;99.90;;;;;;5011711;28;20513;-62
2021/04/11 10:07:50;;;;;;;3.10;2.90;;;4.40;99.90;;;;;;5008635;28;20464;-63
2021/04/11 10:10:39;;;;;;;3.10;2.90;;;4.60;99.90;;;;;;5015750;28;20464;-63
2021/04/11 10:13:30;;;;;;;3.37;3.07;;;4.70;99.90;;;;;;5018988;28;20452;-63
2021/04/11 10:16:10;;;;;;;3.30;2.97;;;4.70;99.90;;;;;;5000818;28;20453;-63
2021/04/11 10:18:59;;;;;;;3.43;3.13;;;4.70;99.90;;;;;;5008924;28;20460;-63
2021/04/11 10:21:33;;;;;;;3.40;3.10;;;4.60;99.90;;;;;;5019027;28;20456;-63
2021/04/11 10:24:12;;;;;;;4.53;4.13;;;4.60;99.90;;;;;;5019036;28;20514;-63
2021/04/11 10:26:46;;;;;;;6.07;5.57;;;4.50;99.90;;;;;;5018638;28;20491;-63
2021/04/11 10:29:17;;;;;;;7.00;6.40;;;4.40;99.90;;;;;;5034927;28;20464;-63
2021/04/11 10:31:51;;;;;;;6.67;6.17;;;4.60;99.90;;;;;;5032805;28;20447;-63
2021/04/11 10:34:29;;;;;;;6.43;5.93;;;4.70;99.90;;;;;;4999110;28;20827;-63
2021/04/11 10:37:04;;;;;;;7.30;6.70;;;4.60;99.90;;;;;;5010874;28;20463;-62
2021/04/11 10:39:42;;;;;;;6.03;5.53;;;4.50;99.90;;;;;;5016343;28;20489;-62
2021/04/11 10:42:24;;;;;;;7.90;7.30;;;4.60;99.90;;;;;;5022813;28;20497;-63
2021/04/11 10:45:18;;;;;;;7.67;7.07;;;4.70;99.90;;;;;;5013625;28;20467;-63
2021/04/11 10:48:14;;;;;;;8.67;8.07;;;4.40;99.90;;;;;;5011745;28;20459;-63
2021/04/11 10:50:47;;;;;;;8.40;7.70;;;4.40;99.90;;;;;;4997423;28;20483;-63
2021/04/11 10:53:32;;;;;;;7.90;7.30;;;4.30;99.90;;;;;;5009905;28;20783;-63
2021/04/11 10:56:12;;;;;;;8.40;7.80;;;4.30;99.90;;;;;;5005838;28;20457;-63
2021/04/11 10:59:04;;;;;;;8.50;7.83;;;4.10;99.90;;;;;;5005436;28;20467;-63
2021/04/11 11:02:01;;;;;;;8.73;8.03;;;4.10;99.90;;;;;;4967221;28;20468;-63
2021/04/11 11:05:03;;;;;;;9.73;8.90;;;4.10;99.90;;;;;;4930555;28;20476;-63
2021/04/11 11:07:55;;;;;;;7.60;7.00;;;4.30;99.90;;;;;;5011112;28;20897;-63
2021/04/11 11:10:37;;;;;;;8.70;8.10;;;4.00;99.90;;;;;;5013984;28;21568;-62
2021/04/11 11:13:37;;;;;;;8.83;8.10;;;4.00;99.90;;;;;;5002652;28;20460;-63
2021/04/11 11:16:31;;;;;;;7.70;7.10;;;4.00;99.90;;;;;;5009158;28;20459;-63
2021/04/11 11:19:13;;;;;;;9.17;8.47;;;4.00;99.90;;;;;;4995762;28;20834;-62
2021/04/11 11:22:09;;;;;;;8.60;7.90;;;4.10;99.90;;;;;;5005299;28;20914;-62
2021/04/11 11:25:09;;;;;;;8.00;7.40;;;4.20;99.90;;;;;;4989575;28;20451;-63
2021/04/11 11:28:00;;;;;;;8.20;7.60;;;4.20;99.90;;;;;;5010589;28;20456;-63
2021/04/11 11:30:39;;;;;;;7.87;7.27;;;4.40;99.90;;;;;;5004729;28;20468;-62
2021/04/11 11:33:28;;;;;;;8.37;7.67;;;4.20;99.90;;;;;;5010642;28;20496;-62
2021/04/11 11:36:10;;;;;;;7.40;6.80;;;4.00;99.90;;;;;;5012456;28;20467;-63
2021/04/11 11:38:52;;;;;;;8.67;7.90;;;4.00;99.90;;;;;;5014642;28;20460;-63
2021/04/11 11:41:27;;;;;;;8.20;7.40;;;3.90;99.90;;;;;;5011258;28;20505;-63
2021/04/11 11:44:04;;;;;;;7.73;7.13;;;4.00;99.90;;;;;;5002633;28;20459;-63
2021/04/11 11:46:40;;;;;;;7.67;7.13;;;4.20;99.90;;;;;;5012791;28;20843;-63
2021/04/11 11:49:15;;;;;;;7.70;7.10;;;4.20;99.90;;;;;;5011567;28;20456;-63
2021/04/11 11:51:51;;;;;;;8.50;7.70;;;4.20;99.90;;;;;;5005901;28;20503;-64
2021/04/11 11:54:22;;;;;;;8.67;7.97;;;4.30;99.90;;;;;;5003319;28;20464;-64
2021/04/11 11:57:03;;;;;;;7.90;7.30;;;4.30;99.90;;;;;;5009137;28;20468;-64
2021/04/11 11:59:35;;;;;;;7.73;7.13;;;4.30;99.90;;;;;;5000609;28;20465;-63
2021/04/11 12:02:12;;;;;;;8.43;7.83;;;4.30;99.90;;;;;;5003146;28;20488;-64
2021/04/11 12:05:00;;;;;;;7.83;7.23;;;4.40;99.90;;;;;;5004090;28;20910;-64
2021/04/11 12:07:36;;;;;;;8.17;7.43;;;4.40;99.90;;;;;;4999119;28;20457;-64
2021/04/11 12:10:25;;;;;;;8.47;7.77;;;4.50;99.90;;;;;;5011137;28;20463;-65
2021/04/11 12:13:06;;;;;;;6.83;6.33;;;4.60;99.90;;;;;;5001679;28;20443;-65
2021/04/11 12:15:41;;;;;;;7.03;6.53;;;4.60;99.90;;;;;;5005987;28;20887;-65
2021/04/11 12:18:11;;;;;;;6.90;6.40;;;4.70;99.90;;;;;;5006173;28;20467;-65
2021/04/11 12:20:46;;;;;;;5.97;5.47;;;4.60;99.90;;;;;;5002121;28;20966;-64
2021/04/11 12:23:24;;;;;;;6.10;5.70;;;4.40;99.90;;;;;;5006671;28;20545;-65
2021/04/11 12:26:04;;;;;;;6.70;6.20;;;4.40;99.90;;;;;;5004132;28;20982;-65
2021/04/11 12:28:31;;;;;;;6.67;6.07;;;4.40;99.90;;;;;;5014764;28;20470;-65
2021/04/11 12:30:58;;;;;;;6.43;6.03;;;4.50;99.90;;;;;;5006075;28;20466;-65
2021/04/11 12:33:32;;;;;;;7.43;6.83;;;4.80;99.90;;;;;;5014937;28;20492;-65
2021/04/11 12:36:05;;;;;;;7.40;6.80;;;5.00;99.90;;;;;;5016776;28;20821;-65
2021/04/11 12:38:41;;;;;;;6.60;6.10;;;5.10;99.90;;;;;;5015989;28;20460;-65
2021/04/11 12:41:13;;;;;;;6.47;5.97;;;5.30;99.90;;;;;;5009113;28;20442;-65
2021/04/11 12:43:47;;;;;;;6.00;5.60;;;5.40;99.90;;;;;;5016735;28;20463;-65
2021/04/11 12:46:23;;;;;;;6.43;5.93;;;5.30;99.90;;;;;;5017056;28;20494;-65
2021/04/11 12:48:59;;;;;;;5.77;5.33;;;5.30;99.90;;;;;;5016497;28;20529;-65
2021/04/11 12:51:34;;;;;;;6.10;5.70;;;5.60;99.90;;;;;;5017893;28;20566;-65
2021/04/11 12:54:08;;;;;;;5.10;4.70;;;5.70;99.90;;;;;;5013887;28;20466;-65
2021/04/11 12:56:39;;;;;;;6.00;5.50;;;5.50;99.90;;;;;;5020138;28;20495;-65
2021/04/11 12:59:13;;;;;;;6.50;6.07;;;5.00;99.90;;;;;;5017304;28;20449;-65
2021/04/11 13:01:45;;;;;;;6.30;5.80;;;4.80;99.90;;;;;;5019067;28;20468;-65
2021/04/11 13:04:19;;;;;;;7.20;6.70;;;4.90;99.90;;;;;;5009162;28;20476;-65
2021/04/11 13:06:55;;;;;;;8.00;7.40;;;5.10;99.90;;;;;;5010928;28;20504;-65
2021/04/11 13:09:50;;;;;;;7.90;7.20;;;5.30;99.90;;;;;;5015358;28;20485;-64
2021/04/11 13:12:26;;;;;;;7.43;6.90;;;5.40;99.90;;;;;;4994644;28;20468;-64
2021/04/11 13:15:01;;;;;;;7.67;7.07;;;5.20;99.90;;;;;;4999348;28;20735;-64
2021/04/11 13:17:36;;;;;;;7.10;6.60;;;5.30;99.90;;;;;;5009100;28;20470;-64
2021/04/11 13:20:11;;;;;;;7.17;5.70;;;5.50;99.90;;;;;;5019185;28;20490;-64
2021/04/11 13:22:48;;;;;;;6.30;5.70;;;5.80;99.90;;;;;;5015167;28;20463;-64
2021/04/11 13:25:28;;;;;;;6.33;5.80;;;6.00;99.90;;;;;;5019875;28;20901;-64
2021/04/11 13:28:08;;;;;;;5.40;5.00;;;5.90;99.90;;;;;;5018929;28;20537;-64
2021/04/11 13:30:40;;;;;;;5.17;4.77;;;5.90;99.90;;;;;;5019657;28;20467;-65
2021/04/11 13:33:15;;;;;;;7.57;5.67;;;6.10;99.90;;;;;;5017963;28;20995;-65
2021/04/11 13:35:52;;;;;;;5.00;4.50;;;6.20;99.90;;;;;;5014715;28;20460;-65
2021/04/11 13:38:22;;;;;;;4.97;4.47;;;6.30;99.90;;;;;;5003204;28;20521;-65
2021/04/11 13:40:50;;;;;;;4.53;4.10;;;6.50;99.90;;;;;;5013840;28;20464;-65
2021/04/11 13:43:24;;;;;;;5.33;4.23;;;6.40;99.90;;;;;;5006474;28;20511;-64
2021/04/11 13:46:07;;;;;;;5.13;4.63;;;6.00;99.90;;;;;;5014965;28;20502;-64
2021/04/11 13:48:56;;;;;;;4.13;3.83;;;5.90;99.90;;;;;;5012302;28;20460;-64